Time;durP1;ratioP1;P1;durP2;ratioP2;P2;SDS_P1;SDS_P2;PMS_P1;PMS_P2;Temp;Humidity;BMP_temperature;BMP_pressure;BME280_temperature;BME280_humidity;BME280_pressure;Samples;Min_cycle;Max_cycle;Signal;HPM_P1;HPM_P2
2023/07/31 00:00:28;;;;;;;4.30;3.90;;;;;;;26.47;49.66;94743.72;6125374;28;110375;-67
2023/07/31 00:03:32;;;;;;;3.92;3.63;;;;;;;26.48;49.81;94742.59;6163551;22;109242;-61
2023/07/31 00:06:36;;;;;;;4.10;3.70;;;;;;;26.48;49.44;94742.59;6145907;28;109044;-60
2023/07/31 00:09:40;;;;;;;4.53;3.60;;;;;;;26.47;49.41;94747.19;6140518;28;108972;-60
2023/07/31 00:12:44;;;;;;;4.20;3.80;;;;;;;26.45;49.62;94754.03;6138558;28;110030;-61
2023/07/31 00:15:48;;;;;;;4.10;3.80;;;;;;;26.45;49.90;94754.03;6138985;28;108979;-61
2023/07/31 00:18:51;;;;;;;4.03;3.72;;;;;;;26.43;49.83;94751.69;6149743;28;109236;-61
2023/07/31 00:21:55;;;;;;;4.00;3.70;;;;;;;26.45;50.00;94754.81;6136444;28;111128;-62
2023/07/31 00:24:59;;;;;;;4.03;3.73;;;;;;;26.43;49.66;94753.59;6149606;28;109452;-61
2023/07/31 00:28:02;;;;;;;3.80;3.50;;;;;;;26.45;49.30;94749.44;6139972;28;109094;-61
2023/07/31 00:31:05;;;;;;;4.32;3.60;;;;;;;26.44;49.54;94749.78;6129697;28;109949;-60
2023/07/31 00:34:09;;;;;;;4.00;3.70;;;;;;;26.44;49.75;94741.72;6160951;28;109045;-62
2023/07/31 00:37:15;;;;;;;3.70;3.40;;;;;;;26.45;49.71;94727.97;6157673;28;110399;-61
2023/07/31 00:40:18;;;;;;;3.80;3.50;;;;;;;26.44;50.15;94721.03;6161713;28;109435;-61
2023/07/31 00:43:21;;;;;;;3.70;3.40;;;;;;;26.43;49.81;94711.44;6134118;28;109843;-60
2023/07/31 00:46:25;;;;;;;3.73;3.43;;;;;;;26.43;50.30;94711.44;6140756;28;108862;-60
2023/07/31 00:49:28;;;;;;;3.80;3.40;;;;;;;26.41;49.81;94719.03;6157162;28;109163;-60
2023/07/31 00:52:33;;;;;;;3.75;3.45;;;;;;;26.42;49.80;94722.50;6139006;28;109142;-61
2023/07/31 00:55:36;;;;;;;3.50;3.20;;;;;;;26.43;49.54;94721.38;6133234;28;109566;-60
2023/07/31 00:58:40;;;;;;;3.95;3.65;;;;;;;26.41;49.89;94718.25;6128906;28;109134;-61
2023/07/31 01:01:43;;;;;;;3.80;3.50;;;;;;;26.42;50.27;94722.50;6130397;28;109136;-60
2023/07/31 01:04:47;;;;;;;3.60;3.30;;;;;;;26.41;50.02;94720.94;6142700;28;109184;-61
2023/07/31 01:07:57;;;;;;;4.00;3.60;;;;;;;26.40;49.98;94708.66;6138405;28;108790;-67
2023/07/31 01:11:08;;;;;;;3.50;3.20;;;;;;;26.41;49.87;94708.31;6145391;28;109168;-66
2023/07/31 01:14:11;;;;;;;3.60;3.30;;;;;;;26.43;50.08;94702.59;6126707;28;109027;-67
2023/07/31 01:17:14;;;;;;;4.05;3.30;;;;;;;26.45;50.15;94703.03;6130297;28;111165;-66
2023/07/31 01:20:22;;;;;;;3.60;3.30;;;;;;;26.45;49.65;94697.66;6136023;28;108999;-66
2023/07/31 01:23:47;;;;;;;4.00;3.60;;;;;;;26.43;49.80;94694.56;6138975;28;109972;-67
2023/07/31 01:26:58;;;;;;;3.27;3.07;;;;;;;26.42;50.30;94695.69;6126056;28;109508;-67
2023/07/31 01:30:10;;;;;;;3.67;3.37;;;;;;;26.42;49.85;94691.09;6158997;28;109405;-66
2023/07/31 01:33:15;;;;;;;3.60;3.30;;;;;;;26.42;50.02;94698.34;6140943;28;110411;-67
2023/07/31 01:36:18;;;;;;;3.40;3.10;;;;;;;26.41;49.75;94697.56;6138224;28;109101;-67
2023/07/31 01:39:21;;;;;;;3.47;3.17;;;;;;;26.43;50.04;94689.19;6128768;28;109146;-67
2023/07/31 01:42:26;;;;;;;3.40;3.10;;;;;;;26.43;49.80;94691.88;6138264;28;109069;-66
2023/07/31 01:45:29;;;;;;;3.33;3.03;;;;;;;26.43;49.93;94686.50;6133113;28;109166;-67
2023/07/31 01:48:35;;;;;;;3.70;3.40;;;;;;;26.40;50.09;94685.28;6139606;28;110214;-66
2023/07/31 01:51:38;;;;;;;3.70;3.40;;;;;;;26.40;49.92;94687.19;6127364;28;109084;-66
2023/07/31 01:54:41;;;;;;;3.10;2.90;;;;;;;26.43;49.84;94691.88;6151297;28;109265;-67
2023/07/31 01:57:46;;;;;;;3.50;3.20;;;;;;;26.43;49.84;94702.59;6132380;28;109137;-67
2023/07/31 02:00:50;;;;;;;3.40;3.10;;;;;;;26.41;49.79;94688.75;6127079;28;109731;-66
2023/07/31 02:03:53;;;;;;;3.60;3.30;;;;;;;26.42;49.64;94706.41;6116590;28;109216;-67
2023/07/31 02:06:57;;;;;;;3.33;3.13;;;;;;;26.42;49.28;94695.69;6131569;28;109390;-67
2023/07/31 02:10:00;;;;;;;3.77;3.47;;;;;;;26.39;49.40;94694.47;6157371;28;109231;-66
2023/07/31 02:13:04;;;;;;;3.70;3.40;;;;;;;26.43;49.71;94707.97;6125428;28;109666;-67
2023/07/31 02:16:07;;;;;;;3.40;3.20;;;;;;;26.41;49.69;94696.81;6129789;28;109089;-67
2023/07/31 02:19:11;;;;;;;3.50;3.20;;;;;;;26.38;49.80;94705.50;6148599;28;110655;-71
2023/07/31 02:22:14;;;;;;;4.80;4.40;;;;;;;26.40;50.49;94714.81;6141463;28;110091;-66
2023/07/31 02:25:17;;;;;;;4.45;4.05;;;;;;;26.38;50.26;94718.91;6122807;28;111012;-67
2023/07/31 02:28:21;;;;;;;4.70;4.30;;;;;;;26.39;49.88;94723.19;6148818;28;109315;-67
2023/07/31 02:31:25;;;;;;;5.40;4.30;;;;;;;26.39;50.04;94720.50;6139542;28;110329;-67
2023/07/31 02:34:28;;;;;;;4.90;4.43;;;;;;;26.39;50.35;94718.59;6145039;28;109796;-66
2023/07/31 02:37:31;;;;;;;4.60;4.20;;;;;;;26.38;50.24;94716.25;6138025;28;111205;-66
2023/07/31 02:40:34;;;;;;;4.90;4.50;;;;;;;26.35;49.86;94706.97;6144002;28;110313;-67
2023/07/31 02:43:39;;;;;;;5.20;4.70;;;;;;;26.35;49.75;94714.25;6159291;28;109363;-66
2023/07/31 02:46:42;;;;;;;4.88;4.30;;;;;;;26.35;49.95;94711.56;6149007;28;109243;-66
2023/07/31 02:49:45;;;;;;;5.43;4.40;;;;;;;26.36;50.34;94713.13;6154324;28;109260;-67
2023/07/31 02:52:48;;;;;;;4.90;4.50;;;;;;;26.35;50.34;94719.59;6136061;28;109532;-67
2023/07/31 02:55:51;;;;;;;4.90;4.50;;;;;;;26.34;50.13;94716.16;6136316;28;110257;-68
2023/07/31 02:58:56;;;;;;;5.95;4.55;;;;;;;26.36;50.48;94724.63;6140398;28;109899;-67
2023/07/31 03:01:59;;;;;;;4.68;4.28;;;;;;;26.36;50.70;94729.22;6140772;28;109352;-66
2023/07/31 03:05:02;;;;;;;4.90;4.50;;;;;;;26.36;50.32;94723.84;6145384;28;109598;-67
2023/07/31 03:08:05;;;;;;;5.60;5.10;;;;;;;26.38;50.49;94721.59;6140901;28;109342;-67
2023/07/31 03:11:08;;;;;;;6.05;5.15;;;;;;;26.42;50.12;94725.19;6122572;28;109810;-66
2023/07/31 03:14:13;;;;;;;14.10;12.90;;;;;;;26.23;50.09;94725.81;6134993;28;109326;-65
2023/07/31 03:17:19;;;;;;;15.50;14.20;;;;;;;26.11;50.29;94718.56;6145108;28;109344;-65
2023/07/31 03:20:22;;;;;;;16.42;15.05;;;;;;;26.06;50.66;94716.13;6138477;28;109225;-65
2023/07/31 03:23:26;;;;;;;15.70;14.50;;;;;;;26.09;49.82;94723.50;6145261;28;110582;-66
2023/07/31 03:26:29;;;;;;;16.10;15.00;;;;;;;26.11;50.15;94729.31;6135694;28;109022;-65
2023/07/31 03:29:34;;;;;;;19.33;17.73;;;;;;;26.14;50.13;94725.16;6153361;28;110420;-66
2023/07/31 03:32:37;;;;;;;18.83;17.33;;;;;;;26.10;50.14;94730.41;6130281;28;110025;-65
2023/07/31 03:35:40;;;;;;;19.83;18.42;;;;;;;26.16;50.09;94742.47;6150740;28;110031;-65
2023/07/31 03:38:43;;;;;;;20.23;18.02;;;;;;;26.16;50.27;94730.97;6159112;28;109331;-66
2023/07/31 03:41:46;;;;;;;19.08;17.67;;;;;;;26.14;49.87;94733.19;6157252;28;109390;-66
2023/07/31 03:44:52;;;;;;;18.83;17.23;;;;;;;26.11;50.72;94729.31;6127643;28;109415;-66
2023/07/31 03:47:55;;;;;;;18.43;16.87;;;;;;;26.12;50.17;94744.28;6135156;28;109385;-70
2023/07/31 03:50:58;;;;;;;19.23;17.73;;;;;;;26.16;50.33;94741.69;6137051;28;109345;-67
2023/07/31 03:54:02;;;;;;;20.23;18.33;;;;;;;26.16;50.35;94736.31;6130723;28;109341;-64
2023/07/31 03:57:05;;;;;;;19.92;18.13;;;;;;;26.22;50.37;94749.19;6129942;28;109193;-66
2023/07/31 04:00:11;;;;;;;19.73;18.02;;;;;;;26.26;50.28;94747.38;6134549;28;109686;-66
2023/07/31 04:03:14;;;;;;;20.52;18.42;;;;;;;26.30;50.67;94760.09;6147266;28;109346;-66
2023/07/31 04:06:18;;;;;;;20.85;19.05;;;;;;;26.25;50.57;94764.59;6143332;28;109179;-66
2023/07/31 04:09:21;;;;;;;20.00;18.30;;;;;;;26.21;50.24;94760.22;6134066;28;109302;-65
2023/07/31 04:12:24;;;;;;;21.63;19.50;;;;;;;26.22;50.06;94761.81;6147420;28;110374;-69
2023/07/31 04:15:29;;;;;;;26.38;19.42;;;;;;;26.21;50.37;94761.03;6121318;28;109609;-70
2023/07/31 04:18:32;;;;;;;21.58;19.67;;;;;;;26.29;50.26;94767.38;6149085;28;110899;-66
2023/07/31 04:21:35;;;;;;;22.20;20.40;;;;;;;26.19;49.97;94768.59;6147179;28;109110;-66
2023/07/31 04:24:38;;;;;;;23.15;21.35;;;;;;;26.15;50.82;94770.41;6134356;28;109369;-65
2023/07/31 04:27:42;;;;;;;23.43;21.23;;;;;;;26.13;50.17;94771.88;6134187;28;110294;-69
2023/07/31 04:30:46;;;;;;;23.13;21.23;;;;;;;25.97;50.59;94769.06;6123669;28;109212;-68
2023/07/31 04:33:52;;;;;;;23.60;21.70;;;;;;;25.83;51.18;94772.09;6134360;28;109216;-69
2023/07/31 04:36:56;;;;;;;24.40;22.40;;;;;;;25.71;51.38;94768.63;6134903;28;108924;-68
2023/07/31 04:39:59;;;;;;;23.25;21.55;;;;;;;25.66;51.12;94770.41;6153668;28;110524;-61
2023/07/31 04:43:02;;;;;;;23.23;21.42;;;;;;;25.59;51.04;94770.22;6148770;28;109074;-61
2023/07/31 04:46:07;;;;;;;23.48;21.77;;;;;;;25.57;51.40;94766.31;6137681;28;110187;-62
2023/07/31 04:49:10;;;;;;;22.92;21.13;;;;;;;25.50;51.63;94774.09;6138159;28;109468;-61
2023/07/31 04:52:13;;;;;;;24.05;22.15;;;;;;;25.52;51.04;94761.16;6129439;28;109690;-61
2023/07/31 04:55:16;;;;;;;22.70;21.00;;;;;;;25.51;51.36;94765.72;6138926;28;109080;-61
2023/07/31 04:58:19;;;;;;;23.10;21.40;;;;;;;25.47;51.28;94761.38;6148811;28;109264;-61
2023/07/31 05:01:24;;;;;;;23.15;21.35;;;;;;;25.38;51.56;94770.31;6161767;28;109281;-61
2023/07/31 05:04:27;;;;;;;22.70;20.90;;;;;;;25.28;51.49;94767.25;6152426;28;110341;-61
2023/07/31 05:07:30;;;;;;;23.20;21.30;;;;;;;25.28;51.45;94769.91;6162285;28;110379;-61
2023/07/31 05:10:33;;;;;;;22.40;20.60;;;;;;;25.31;51.26;94767.34;6162418;28;110047;-62
2023/07/31 05:13:36;;;;;;;22.60;20.80;;;;;;;25.46;50.97;94759.81;6156024;28;109195;-63
2023/07/31 05:16:41;;;;;;;22.85;20.85;;;;;;;25.40;51.07;94759.25;6156406;28;109270;-62
2023/07/31 05:19:45;;;;;;;21.10;19.50;;;;;;;25.38;50.98;94767.63;6140494;28;109073;-62
2023/07/31 05:22:48;;;;;;;21.80;20.20;;;;;;;25.32;51.40;94762.78;6137578;28;110171;-62
2023/07/31 05:25:51;;;;;;;22.73;21.03;;;;;;;25.34;51.18;94764.00;6127509;28;110244;-63
2023/07/31 05:28:54;;;;;;;21.00;19.50;;;;;;;25.32;50.96;94763.56;6150826;28;110209;-62
2023/07/31 05:31:59;;;;;;;21.23;19.73;;;;;;;25.42;51.11;94758.94;6130839;28;109297;-62
2023/07/31 05:35:02;;;;;;;21.33;19.73;;;;;;;25.54;50.71;94754.34;6113250;28;109135;-61
2023/07/31 05:38:05;;;;;;;21.10;19.50;;;;;;;25.67;50.13;94755.91;6116899;28;110171;-61
2023/07/31 05:41:09;;;;;;;22.70;21.00;;;;;;;25.73;49.53;94750.34;6161479;28;109306;-62
2023/07/31 05:44:12;;;;;;;22.80;21.10;;;;;;;25.78;49.82;94755.47;6160482;28;109011;-62
2023/07/31 05:47:16;;;;;;;22.00;20.40;;;;;;;25.83;49.40;94760.59;6162021;28;108924;-62
2023/07/31 05:50:20;;;;;;;18.83;17.52;;;;;;;25.77;49.96;94754.69;6150829;28;110126;-62
2023/07/31 05:53:23;;;;;;;16.38;15.18;;;;;;;25.51;49.93;94755.00;6153896;28;109063;-63
2023/07/31 05:56:27;;;;;;;15.00;14.00;;;;;;;25.38;50.47;94753.47;6136006;28;109237;-63
2023/07/31 05:59:32;;;;;;;12.90;12.00;;;;;;;25.30;50.08;94762.34;6131669;28;110142;-63
2023/07/31 06:02:37;;;;;;;12.85;11.85;;;;;;;25.30;49.69;94754.28;6133811;28;109106;-63
2023/07/31 06:05:40;;;;;;;12.52;11.63;;;;;;;25.27;50.14;94763.00;6161075;28;108949;-63
2023/07/31 06:08:43;;;;;;;12.05;11.15;;;;;;;25.24;49.75;94774.38;6160579;28;109612;-62
2023/07/31 06:11:46;;;;;;;11.82;10.93;;;;;;;25.23;50.07;94767.47;6150184;28;109325;-62
2023/07/31 06:14:49;;;;;;;11.30;10.50;;;;;;;25.21;50.05;94762.44;6160045;28;109223;-62
2023/07/31 06:17:54;;;;;;;11.10;10.30;;;;;;;25.24;49.92;94761.78;6157521;28;109190;-63
2023/07/31 06:20:57;;;;;;;11.18;10.38;;;;;;;25.13;49.89;94754.50;6136612;28;109373;-62
2023/07/31 06:24:00;;;;;;;10.90;10.10;;;;;;;25.14;49.47;94758.72;6125508;28;109254;-62
2023/07/31 06:27:05;;;;;;;9.37;8.67;;;;;;;25.09;49.34;94762.41;6136535;28;110408;-62
2023/07/31 06:30:09;;;;;;;9.40;8.70;;;;;;;25.24;48.83;94763.66;6156922;28;109157;-62
2023/07/31 06:33:13;;;;;;;9.80;9.00;;;;;;;25.44;48.45;94764.72;6151277;28;109956;-62
2023/07/31 06:36:16;;;;;;;9.32;8.63;;;;;;;25.62;48.29;94763.38;6130969;28;109211;-62
2023/07/31 06:39:20;;;;;;;7.95;7.25;;;;;;;25.62;47.89;94761.50;6136216;28;109405;-62
2023/07/31 06:42:23;;;;;;;8.88;7.70;;;;;;;25.77;47.73;94757.38;6136185;28;109285;-61
2023/07/31 06:45:26;;;;;;;8.43;7.80;;;;;;;25.92;46.98;94751.31;6147956;28;109805;-62
2023/07/31 06:48:30;;;;;;;7.93;7.13;;;;;;;26.01;47.37;94756.56;6159249;28;109025;-61
2023/07/31 06:51:35;;;;;;;7.00;6.50;;;;;;;26.04;46.66;94755.88;6159496;28;109290;-61
2023/07/31 06:54:38;;;;;;;7.00;6.50;;;;;;;26.11;46.42;94756.13;6159132;28;108781;-61
2023/07/31 06:57:42;;;;;;;7.10;6.50;;;;;;;26.18;47.01;94767.03;6149113;28;109238;-62
2023/07/31 07:00:45;;;;;;;6.90;6.40;;;;;;;26.14;46.49;94768.06;6136378;28;110539;-62
2023/07/31 07:03:50;;;;;;;6.72;6.22;;;;;;;26.11;46.18;94766.84;6142934;28;109115;-62
2023/07/31 07:06:53;;;;;;;6.18;5.68;;;;;;;26.08;46.84;94764.06;6160340;28;110043;-62
2023/07/31 07:09:57;;;;;;;6.60;6.10;;;;;;;26.08;46.89;94762.16;6148396;28;109838;-62
2023/07/31 07:13:00;;;;;;;6.30;5.70;;;;;;;26.12;46.96;94759.59;6159588;28;109442;-62
2023/07/31 07:16:03;;;;;;;6.07;5.68;;;;;;;26.16;46.61;94763.16;6158740;28;109319;-62
2023/07/31 07:19:08;;;;;;;6.00;5.60;;;;;;;26.18;46.58;94763.59;6143369;28;109347;-63
2023/07/31 07:22:11;;;;;;;5.73;5.33;;;;;;;26.21;46.18;94760.22;6133483;28;110592;-62
2023/07/31 07:25:14;;;;;;;6.00;5.60;;;;;;;26.20;45.79;94759.44;6153560;28;109248;-62
2023/07/31 07:28:17;;;;;;;5.53;5.13;;;;;;;26.21;45.71;94766.41;6158952;28;109225;-61
2023/07/31 07:31:20;;;;;;;5.90;5.40;;;;;;;26.25;46.05;94766.50;6148586;28;109079;-63
2023/07/31 07:34:25;;;;;;;6.00;5.40;;;;;;;26.25;45.80;94775.31;6158785;28;109007;-61
2023/07/31 07:37:28;;;;;;;5.25;4.75;;;;;;;26.12;46.07;94773.78;6159614;28;109114;-61
2023/07/31 07:40:31;;;;;;;4.50;4.10;;;;;;;25.95;45.69;94779.34;6138945;28;109218;-61
2023/07/31 07:43:34;;;;;;;4.47;4.10;;;;;;;25.82;45.86;94781.25;6124330;28;109139;-61
2023/07/31 07:46:38;;;;;;;5.90;4.37;;;;;;;25.85;46.50;94785.94;6134650;28;110231;-63
2023/07/31 07:49:43;;;;;;;5.00;4.50;;;;;;;25.96;45.62;94784.38;6135002;28;109433;-60
2023/07/31 07:52:54;;;;;;;5.00;4.60;;;;;;;25.95;45.90;94790.84;6129526;28;109313;-62
2023/07/31 07:55:58;;;;;;;4.90;4.40;;;;;;;25.98;45.58;94789.41;6129043;28;109683;-60
2023/07/31 07:59:01;;;;;;;4.45;4.03;;;;;;;25.96;45.79;94797.00;6140971;28;109232;-61
2023/07/31 08:02:04;;;;;;;4.90;4.50;;;;;;;25.92;45.78;94786.19;6158348;28;109332;-61
2023/07/31 08:05:09;;;;;;;5.00;4.60;;;;;;;26.03;45.86;94783.06;6132652;28;109461;-62
2023/07/31 08:08:16;;;;;;;5.20;4.80;;;;;;;26.09;45.12;94787.88;6134713;28;109235;-62
2023/07/31 08:11:19;;;;;;;4.90;4.50;;;;;;;26.15;45.16;94788.41;6110240;28;109291;-69
2023/07/31 08:14:22;;;;;;;4.80;4.13;;;;;;;26.20;45.13;94780.91;6119489;28;110551;-69
2023/07/31 08:17:25;;;;;;;4.53;4.13;;;;;;;26.25;45.41;94786.06;6122958;28;111079;-69
2023/07/31 08:20:30;;;;;;;4.57;4.18;;;;;;;26.26;45.09;94782.25;6137177;28;110088;-68
2023/07/31 08:23:33;;;;;;;4.40;4.00;;;;;;;26.28;45.20;94785.38;6139092;28;109736;-69
2023/07/31 08:26:36;;;;;;;4.28;3.88;;;;;;;26.30;44.93;94784.25;6141065;28;109589;-64
2023/07/31 08:29:40;;;;;;;15.43;14.43;;;;;;;26.28;45.14;94776.53;6155763;28;109784;-67
2023/07/31 08:32:43;;;;;;;17.37;16.27;;;;;;;26.35;44.77;94781.31;6162107;28;109546;-68
2023/07/31 08:35:48;;;;;;;14.97;13.87;;;;;;;26.40;44.58;94781.09;6162666;28;108871;-68
2023/07/31 08:38:51;;;;;;;12.43;11.63;;;;;;;26.40;44.70;94789.16;6152566;28;109238;-68
2023/07/31 08:41:59;;;;;;;9.20;8.50;;;;;;;26.39;44.87;94774.19;6161651;28;109235;-68
2023/07/31 08:45:04;;;;;;;6.95;6.45;;;;;;;26.41;45.19;94774.63;6162240;28;109430;-68
2023/07/31 08:48:07;;;;;;;6.25;5.75;;;;;;;26.39;44.96;94776.84;6161673;28;110242;-67
2023/07/31 08:51:15;;;;;;;5.35;4.85;;;;;;;26.41;44.86;94777.28;6151384;28;109157;-68
2023/07/31 08:54:18;;;;;;;4.70;4.20;;;;;;;26.42;44.93;94776.19;6125070;28;109266;-68
2023/07/31 08:57:21;;;;;;;4.50;4.20;;;;;;;26.40;44.99;94781.09;6146847;28;109364;-68
2023/07/31 09:00:25;;;;;;;4.60;4.20;;;;;;;26.47;44.26;94784.75;6161769;28;109503;-68
2023/07/31 09:03:29;;;;;;;4.78;4.28;;;;;;;26.50;44.79;94780.59;6151331;28;110139;-68
2023/07/31 09:06:35;;;;;;;4.60;4.20;;;;;;;26.50;44.61;94772.56;6161714;28;109086;-68
2023/07/31 09:09:38;;;;;;;3.90;3.58;;;;;;;26.52;44.03;94770.31;6162011;28;109216;-68
2023/07/31 09:12:42;;;;;;;4.63;4.22;;;;;;;26.42;43.75;94776.19;6145513;28;110240;-67
2023/07/31 09:15:47;;;;;;;4.10;3.80;;;;;;;26.49;43.83;94763.72;6134916;28;109235;-68
2023/07/31 09:18:56;;;;;;;4.20;3.80;;;;;;;26.51;43.73;94768.75;6137090;28;108935;-67
2023/07/31 09:22:01;;;;;;;4.30;3.60;;;;;;;26.53;44.06;94772.66;6137907;28;110121;-62
2023/07/31 09:25:16;;;;;;;4.10;3.80;;;;;;;26.55;44.02;94764.28;6126331;28;109087;-62
2023/07/31 09:28:19;;;;;;;4.10;3.80;;;;;;;26.52;43.50;94773.00;6137161;28;109324;-61
2023/07/31 09:31:33;;;;;;;4.10;3.70;;;;;;;26.52;43.79;94760.34;6136134;28;109288;-62
2023/07/31 09:34:39;;;;;;;5.05;4.10;;;;;;;26.51;44.11;94755.34;6137400;28;109275;-63
2023/07/31 09:37:43;;;;;;;5.17;4.40;;;;;;;26.53;43.57;94755.75;6137177;28;109330;-62
2023/07/31 09:40:48;;;;;;;4.68;4.20;;;;;;;26.53;44.05;94753.09;6161574;28;109332;-62
2023/07/31 09:43:55;;;;;;;4.57;4.00;;;;;;;26.53;43.28;94750.41;6161351;28;110197;-62
2023/07/31 09:46:58;;;;;;;4.40;3.83;;;;;;;26.51;43.24;94742.69;6148115;28;109147;-62
2023/07/31 09:50:01;;;;;;;4.10;3.70;;;;;;;26.51;43.39;94745.38;6136149;28;109344;-61
2023/07/31 09:53:06;;;;;;;4.40;4.00;;;;;;;26.53;43.87;94747.72;6136647;28;109214;-61
2023/07/31 09:56:10;;;;;;;4.47;3.90;;;;;;;26.52;43.51;94746.16;6137221;28;109004;-61
2023/07/31 09:59:14;;;;;;;4.03;3.73;;;;;;;26.57;43.71;94743.25;6126115;28;109614;-61
2023/07/31 10:02:22;;;;;;;4.25;3.90;;;;;;;26.51;43.56;94733.88;6136413;28;109590;-61
2023/07/31 10:05:32;;;;;;;4.00;3.70;;;;;;;26.56;43.54;94747.84;6136867;28;109155;-61
2023/07/31 10:08:38;;;;;;;4.00;3.70;;;;;;;26.66;43.22;94737.75;6136789;28;109074;-61
2023/07/31 10:11:44;;;;;;;4.15;3.80;;;;;;;26.68;43.62;94746.25;6126327;28;109282;-62
2023/07/31 10:14:48;;;;;;;4.00;3.70;;;;;;;26.68;42.89;94736.28;6160580;28;109161;-61
2023/07/31 10:17:52;;;;;;;3.60;3.30;;;;;;;26.70;43.62;94738.63;6160513;28;109303;-61
2023/07/31 10:20:57;;;;;;;4.13;3.83;;;;;;;26.61;43.24;94738.75;6151475;28;109308;-62
2023/07/31 10:24:04;;;;;;;4.40;4.00;;;;;;;26.54;43.13;94742.00;6143055;28;111541;-61
2023/07/31 10:27:08;;;;;;;4.13;3.73;;;;;;;26.51;43.39;94736.53;6137786;28;109419;-62
2023/07/31 10:30:16;;;;;;;4.07;3.78;;;;;;;26.52;43.19;94738.88;6160541;28;109329;-61
2023/07/31 10:33:22;;;;;;;4.00;3.67;;;;;;;26.45;43.24;94727.97;6149712;28;110095;-61
2023/07/31 10:36:27;;;;;;;4.05;3.75;;;;;;;26.49;43.40;94733.44;6160902;28;109791;-61
2023/07/31 10:39:39;;;;;;;4.30;3.90;;;;;;;26.46;43.59;94723.38;6160813;28;110211;-62
2023/07/31 10:42:48;;;;;;;3.70;3.40;;;;;;;26.48;42.92;94721.13;6160176;28;110781;-63
2023/07/31 10:45:51;;;;;;;4.67;3.40;;;;;;;26.45;43.16;94721.81;6150718;28;109375;-62
2023/07/31 10:48:59;;;;;;;4.00;3.60;;;;;;;26.51;43.59;94713.16;6144756;28;109225;-62
2023/07/31 10:52:04;;;;;;;3.60;3.20;;;;;;;26.50;43.47;94708.16;6135479;28;110138;-62
2023/07/31 10:55:17;;;;;;;5.22;3.30;;;;;;;26.52;43.36;94709.38;6118164;28;109137;-62
2023/07/31 10:58:21;;;;;;;3.40;3.10;;;;;;;26.50;42.90;94714.28;6145720;28;109156;-62
2023/07/31 11:01:24;;;;;;;3.60;3.30;;;;;;;26.52;43.11;94711.28;6139134;28;108902;-62
2023/07/31 11:04:30;;;;;;;3.78;3.40;;;;;;;26.49;43.22;94696.63;6136153;28;112081;-62
2023/07/31 11:07:47;;;;;;;3.50;3.03;;;;;;;26.48;43.11;94699.66;6125054;28;109067;-62
2023/07/31 11:11:05;;;;;;;3.40;2.90;;;;;;;26.38;42.38;94694.78;6136031;28;109269;-62
2023/07/31 11:14:11;;;;;;;4.70;3.20;;;;;;;26.57;43.79;94692.25;6135676;28;109567;-65
2023/07/31 11:17:14;;;;;;;3.60;3.03;;;;;;;26.62;42.93;94694.69;6136662;28;110602;-62
2023/07/31 11:20:18;;;;;;;3.38;3.08;;;;;;;26.67;42.75;94694.44;6154088;28;109204;-61
2023/07/31 11:23:22;;;;;;;3.80;2.90;;;;;;;26.73;42.32;94686.94;6153043;28;109248;-62
2023/07/31 11:26:28;;;;;;;3.20;2.80;;;;;;;26.73;42.63;94697.69;6135331;28;109856;-61
2023/07/31 11:29:31;;;;;;;3.00;2.70;;;;;;;26.71;42.41;94698.00;6145131;28;109177;-60
2023/07/31 11:32:34;;;;;;;3.10;2.90;;;;;;;26.76;42.40;94695.09;6136035;28;109099;-61
2023/07/31 11:35:44;;;;;;;4.00;3.00;;;;;;;26.78;41.82;94684.00;6134977;28;109490;-61
2023/07/31 11:38:48;;;;;;;3.33;2.90;;;;;;;26.80;41.68;94689.81;6152245;28;110356;-61
2023/07/31 11:41:52;;;;;;;2.83;2.63;;;;;;;26.67;41.85;94689.09;6149150;28;110206;-62
2023/07/31 11:44:56;;;;;;;3.00;2.80;;;;;;;26.59;42.30;94679.28;6160005;28;110217;-61
2023/07/31 11:47:59;;;;;;;4.13;2.90;;;;;;;26.57;41.46;94692.25;6159208;28;109272;-61
2023/07/31 11:51:03;;;;;;;2.92;2.72;;;;;;;26.52;42.61;94677.16;6159031;28;108855;-62
2023/07/31 11:54:07;;;;;;;3.05;2.70;;;;;;;26.51;41.71;94672.91;6149866;28;110021;-62
2023/07/31 11:57:11;;;;;;;3.20;2.90;;;;;;;26.50;41.70;94675.94;6159187;28;110788;-61
2023/07/31 12:00:16;;;;;;;3.30;3.00;;;;;;;26.48;42.06;94670.16;6151208;28;109229;-61
2023/07/31 12:03:20;;;;;;;2.80;2.60;;;;;;;26.50;41.95;94678.63;6123938;28;109199;-62
2023/07/31 12:06:33;;;;;;;3.13;2.80;;;;;;;26.49;41.61;94679.75;6134704;28;109169;-62
2023/07/31 12:09:36;;;;;;;3.15;2.70;;;;;;;26.50;41.66;94670.56;6135031;28;109068;-62
2023/07/31 12:12:40;;;;;;;3.10;2.78;;;;;;;26.51;41.98;94672.91;6134463;28;109667;-63
2023/07/31 12:15:45;;;;;;;3.30;3.00;;;;;;;26.50;42.02;94665.22;6124506;28;110313;-62
2023/07/31 12:18:50;;;;;;;3.30;3.00;;;;;;;26.50;41.50;94657.94;6134893;28;109898;-62
2023/07/31 12:21:53;;;;;;;3.20;2.88;;;;;;;26.56;41.72;94658.50;6134535;28;110009;-63
2023/07/31 12:24:57;;;;;;;3.20;3.00;;;;;;;26.51;41.99;94662.19;6133693;28;109175;-62
2023/07/31 12:28:11;;;;;;;3.55;3.10;;;;;;;26.50;41.59;94654.47;6124279;28;111705;-62
2023/07/31 12:31:17;;;;;;;3.50;3.20;;;;;;;26.54;42.13;94658.03;6134317;28;109294;-61
2023/07/31 12:34:21;;;;;;;3.67;3.38;;;;;;;26.64;41.01;94644.16;6134316;28;109029;-62
2023/07/31 12:37:24;;;;;;;3.60;3.30;;;;;;;26.73;40.83;94658.19;6123972;28;110264;-63
2023/07/31 12:40:28;;;;;;;3.90;3.60;;;;;;;26.70;41.76;94653.50;6133675;28;109163;-62
2023/07/31 12:43:37;;;;;;;3.70;3.40;;;;;;;26.70;41.48;94660.78;6134252;28;109238;-62
2023/07/31 12:46:40;;;;;;;4.13;3.80;;;;;;;26.69;41.36;94653.84;6134336;28;109459;-61
2023/07/31 12:49:44;;;;;;;4.68;3.90;;;;;;;26.70;41.50;94645.44;6143991;28;109299;-62
2023/07/31 12:52:47;;;;;;;4.10;3.80;;;;;;;26.75;41.08;94645.22;6157734;28;109425;-62
2023/07/31 12:55:50;;;;;;;4.40;4.00;;;;;;;26.71;41.06;94636.25;6157439;28;109726;-62
2023/07/31 12:58:54;;;;;;;4.68;4.28;;;;;;;26.68;41.44;94633.50;6145194;28;109800;-63
2023/07/31 13:01:58;;;;;;;4.90;4.50;;;;;;;26.61;41.76;94631.38;6122616;28;109271;-63
2023/07/31 13:05:01;;;;;;;5.73;5.23;;;;;;;26.60;41.88;94631.72;6134435;28;110415;-63
2023/07/31 13:08:04;;;;;;;5.80;5.30;;;;;;;26.55;41.07;94624.72;6138144;28;108926;-62
2023/07/31 13:11:07;;;;;;;5.50;5.10;;;;;;;26.55;41.82;94617.44;6132453;28;109099;-62
2023/07/31 13:14:12;;;;;;;6.00;5.50;;;;;;;26.54;41.32;94620.44;6132222;28;109193;-62
2023/07/31 13:17:15;;;;;;;5.90;5.50;;;;;;;26.54;41.62;94618.56;6138425;28;108813;-61
2023/07/31 13:20:18;;;;;;;5.90;5.40;;;;;;;26.56;41.64;94620.91;6160775;28;109339;-61
2023/07/31 13:23:22;;;;;;;6.30;5.80;;;;;;;26.55;41.45;94630.09;6150477;28;109228;-62
2023/07/31 13:26:25;;;;;;;5.87;5.43;;;;;;;26.55;41.66;94630.09;6161091;28;109319;-62
2023/07/31 13:29:29;;;;;;;6.63;6.03;;;;;;;26.53;41.56;94626.94;6145503;28;109298;-62
2023/07/31 13:32:33;;;;;;;6.63;6.13;;;;;;;26.45;41.42;94638.63;6137346;28;109245;-63
2023/07/31 13:35:36;;;;;;;7.93;6.93;;;;;;;26.54;41.39;94623.13;6126579;28;108896;-61
2023/07/31 13:38:39;;;;;;;7.82;7.13;;;;;;;26.57;40.87;94628.63;6137960;28;110136;-62
2023/07/31 13:41:42;;;;;;;7.78;7.18;;;;;;;26.57;41.28;94633.22;6125142;28;109284;-62
2023/07/31 13:44:46;;;;;;;6.78;6.28;;;;;;;26.55;41.17;94627.41;6126722;28;109727;-65
2023/07/31 13:47:51;;;;;;;7.60;7.00;;;;;;;26.53;41.66;94637.69;6130610;28;109320;-62
2023/07/31 13:50:54;;;;;;;7.20;6.60;;;;;;;26.52;41.48;94636.13;6137099;28;109166;-62
2023/07/31 13:53:57;;;;;;;7.50;6.80;;;;;;;26.52;41.75;94638.81;6137284;28;109272;-61
2023/07/31 13:57:01;;;;;;;7.60;7.00;;;;;;;26.53;41.53;94638.47;6125169;28;110031;-62
2023/07/31 14:00:08;;;;;;;7.80;7.10;;;;;;;26.55;41.10;94636.25;6137154;28;109633;-62
2023/07/31 14:03:11;;;;;;;7.30;6.70;;;;;;;26.56;40.92;94629.75;6140140;28;110933;-61
2023/07/31 14:06:14;;;;;;;6.88;6.28;;;;;;;26.64;40.56;94629.94;6161292;28;109377;-62
2023/07/31 14:09:18;;;;;;;6.80;6.20;;;;;;;26.70;40.62;94637.38;6149666;28;111100;-62
2023/07/31 14:12:21;;;;;;;6.38;5.78;;;;;;;26.71;40.19;94622.84;6160797;28;109116;-62